sensor_id;sensor_type;location;lat;lon;timestamp;P1;durP1;ratioP1;P2;durP2;ratioP2
21168;SDS011;10742;51.816;8.662;2023-09-19T00:02:09;5.47;;;1.73;;
21168;SDS011;10742;51.816;8.662;2023-09-19T00:05:33;4.28;;;1.58;;
21168;SDS011;10742;51.816;8.662;2023-09-19T00:08:55;4.20;;;1.70;;
21168;SDS011;10742;51.816;8.662;2023-09-19T00:12:16;3.22;;;1.70;;
21168;SDS011;10742;51.816;8.662;2023-09-19T00:15:39;7.18;;;2.00;;
21168;SDS011;10742;51.816;8.662;2023-09-19T00:19:01;3.45;;;2.03;;
21168;SDS011;10742;51.816;8.662;2023-09-19T00:22:28;3.97;;;1.80;;
21168;SDS011;10742;51.816;8.662;2023-09-19T00:25:49;6.50;;;1.97;;
21168;SDS011;10742;51.816;8.662;2023-09-19T00:29:10;4.47;;;1.87;;
21168;SDS011;10742;51.816;8.662;2023-09-19T00:32:32;5.87;;;1.90;;
21168;SDS011;10742;51.816;8.662;2023-09-19T00:35:55;5.07;;;1.95;;
21168;SDS011;10742;51.816;8.662;2023-09-19T00:39:17;5.90;;;1.87;;
21168;SDS011;10742;51.816;8.662;2023-09-19T00:42:41;4.73;;;1.87;;
21168;SDS011;10742;51.816;8.662;2023-09-19T00:46:02;3.30;;;1.97;;
21168;SDS011;10742;51.816;8.662;2023-09-19T00:49:26;5.85;;;2.10;;
21168;SDS011;10742;51.816;8.662;2023-09-19T00:52:49;4.40;;;2.00;;
21168;SDS011;10742;51.816;8.662;2023-09-19T00:56:14;6.93;;;2.10;;
21168;SDS011;10742;51.816;8.662;2023-09-19T00:59:40;3.87;;;1.93;;
21168;SDS011;10742;51.816;8.662;2023-09-19T01:03:02;4.30;;;2.00;;
21168;SDS011;10742;51.816;8.662;2023-09-19T01:06:24;6.03;;;2.03;;
21168;SDS011;10742;51.816;8.662;2023-09-19T01:09:45;5.43;;;1.88;;
21168;SDS011;10742;51.816;8.662;2023-09-19T01:17:20;6.83;;;2.30;;
21168;SDS011;10742;51.816;8.662;2023-09-19T01:28:34;3.60;;;2.03;;
21168;SDS011;10742;51.816;8.662;2023-09-19T01:32:03;10.83;;;2.47;;
21168;SDS011;10742;51.816;8.662;2023-09-19T01:35:26;6.30;;;2.67;;
21168;SDS011;10742;51.816;8.662;2023-09-19T01:38:47;6.10;;;2.20;;
21168;SDS011;10742;51.816;8.662;2023-09-19T01:45:46;6.45;;;2.20;;
21168;SDS011;10742;51.816;8.662;2023-09-19T01:52:43;5.27;;;2.13;;
21168;SDS011;10742;51.816;8.662;2023-09-19T01:56:10;7.63;;;2.30;;
21168;SDS011;10742;51.816;8.662;2023-09-19T01:59:44;11.50;;;2.40;;
21168;SDS011;10742;51.816;8.662;2023-09-19T02:03:11;6.13;;;2.00;;
21168;SDS011;10742;51.816;8.662;2023-09-19T02:06:33;7.77;;;2.03;;
21168;SDS011;10742;51.816;8.662;2023-09-19T02:09:54;7.95;;;2.47;;
21168;SDS011;10742;51.816;8.662;2023-09-19T02:13:16;11.13;;;2.20;;
21168;SDS011;10742;51.816;8.662;2023-09-19T02:16:39;6.47;;;2.00;;
21168;SDS011;10742;51.816;8.662;2023-09-19T02:20:01;8.48;;;2.45;;
21168;SDS011;10742;51.816;8.662;2023-09-19T02:23:24;10.60;;;2.40;;
21168;SDS011;10742;51.816;8.662;2023-09-19T02:26:46;8.20;;;2.45;;
21168;SDS011;10742;51.816;8.662;2023-09-19T02:30:07;8.98;;;1.90;;
21168;SDS011;10742;51.816;8.662;2023-09-19T02:33:29;10.53;;;2.13;;
21168;SDS011;10742;51.816;8.662;2023-09-19T02:36:53;7.47;;;2.10;;
21168;SDS011;10742;51.816;8.662;2023-09-19T02:40:16;10.80;;;2.23;;
21168;SDS011;10742;51.816;8.662;2023-09-19T02:43:40;13.38;;;3.00;;
21168;SDS011;10742;51.816;8.662;2023-09-19T02:47:03;12.80;;;3.00;;
21168;SDS011;10742;51.816;8.662;2023-09-19T02:50:26;7.47;;;2.55;;
21168;SDS011;10742;51.816;8.662;2023-09-19T02:53:46;7.88;;;2.63;;
21168;SDS011;10742;51.816;8.662;2023-09-19T02:57:09;7.35;;;2.10;;
21168;SDS011;10742;51.816;8.662;2023-09-19T03:00:30;8.80;;;1.85;;
21168;SDS011;10742;51.816;8.662;2023-09-19T03:03:51;11.00;;;2.47;;
21168;SDS011;10742;51.816;8.662;2023-09-19T03:07:14;9.90;;;2.15;;
21168;SDS011;10742;51.816;8.662;2023-09-19T03:10:36;8.95;;;2.35;;
21168;SDS011;10742;51.816;8.662;2023-09-19T03:13:58;11.23;;;2.38;;
21168;SDS011;10742;51.816;8.662;2023-09-19T03:17:19;8.90;;;2.22;;
21168;SDS011;10742;51.816;8.662;2023-09-19T03:20:42;10.80;;;2.53;;
21168;SDS011;10742;51.816;8.662;2023-09-19T03:24:03;5.40;;;2.30;;
21168;SDS011;10742;51.816;8.662;2023-09-19T03:27:26;10.90;;;2.60;;
21168;SDS011;10742;51.816;8.662;2023-09-19T03:31:03;11.57;;;2.63;;
21168;SDS011;10742;51.816;8.662;2023-09-19T03:34:28;9.05;;;2.63;;
21168;SDS011;10742;51.816;8.662;2023-09-19T03:37:50;10.98;;;2.47;;
21168;SDS011;10742;51.816;8.662;2023-09-19T03:41:13;6.43;;;2.10;;
21168;SDS011;10742;51.816;8.662;2023-09-19T03:44:38;13.30;;;2.58;;
21168;SDS011;10742;51.816;8.662;2023-09-19T03:48:00;10.13;;;2.50;;
21168;SDS011;10742;51.816;8.662;2023-09-19T03:51:21;10.27;;;2.78;;
21168;SDS011;10742;51.816;8.662;2023-09-19T03:54:43;13.40;;;2.42;;
21168;SDS011;10742;51.816;8.662;2023-09-19T03:58:05;13.32;;;2.63;;
21168;SDS011;10742;51.816;8.662;2023-09-19T04:01:26;9.88;;;2.40;;
21168;SDS011;10742;51.816;8.662;2023-09-19T04:04:49;11.95;;;2.33;;
21168;SDS011;10742;51.816;8.662;2023-09-19T04:08:10;10.10;;;2.50;;
21168;SDS011;10742;51.816;8.662;2023-09-19T04:11:31;10.93;;;2.60;;
21168;SDS011;10742;51.816;8.662;2023-09-19T04:14:54;10.63;;;2.17;;
21168;SDS011;10742;51.816;8.662;2023-09-19T04:18:15;10.70;;;2.23;;
21168;SDS011;10742;51.816;8.662;2023-09-19T04:21:36;13.90;;;2.40;;
21168;SDS011;10742;51.816;8.662;2023-09-19T04:24:58;9.47;;;2.17;;
21168;SDS011;10742;51.816;8.662;2023-09-19T04:28:19;13.87;;;2.60;;
21168;SDS011;10742;51.816;8.662;2023-09-19T04:31:40;15.50;;;2.33;;
21168;SDS011;10742;51.816;8.662;2023-09-19T04:35:04;10.33;;;2.43;;
21168;SDS011;10742;51.816;8.662;2023-09-19T04:38:29;9.67;;;2.03;;
21168;SDS011;10742;51.816;8.662;2023-09-19T04:41:51;10.73;;;2.30;;
21168;SDS011;10742;51.816;8.662;2023-09-19T04:45:12;10.10;;;2.63;;
21168;SDS011;10742;51.816;8.662;2023-09-19T04:48:33;9.30;;;2.30;;
21168;SDS011;10742;51.816;8.662;2023-09-19T04:51:55;17.33;;;2.37;;
21168;SDS011;10742;51.816;8.662;2023-09-19T04:55:16;9.23;;;2.33;;
21168;SDS011;10742;51.816;8.662;2023-09-19T04:58:39;10.10;;;2.17;;
21168;SDS011;10742;51.816;8.662;2023-09-19T05:01:59;12.07;;;2.93;;
21168;SDS011;10742;51.816;8.662;2023-09-19T05:05:20;11.67;;;2.53;;
21168;SDS011;10742;51.816;8.662;2023-09-19T05:08:43;10.77;;;2.27;;
21168;SDS011;10742;51.816;8.662;2023-09-19T05:12:04;11.20;;;2.50;;
21168;SDS011;10742;51.816;8.662;2023-09-19T05:15:25;14.93;;;2.57;;
21168;SDS011;10742;51.816;8.662;2023-09-19T05:18:46;13.77;;;2.40;;
21168;SDS011;10742;51.816;8.662;2023-09-19T05:22:07;14.80;;;2.80;;
21168;SDS011;10742;51.816;8.662;2023-09-19T05:25:29;14.37;;;2.47;;
21168;SDS011;10742;51.816;8.662;2023-09-19T05:28:51;9.33;;;2.40;;
21168;SDS011;10742;51.816;8.662;2023-09-19T05:32:13;9.17;;;2.00;;
21168;SDS011;10742;51.816;8.662;2023-09-19T05:35:34;10.83;;;2.47;;
21168;SDS011;10742;51.816;8.662;2023-09-19T05:39:00;11.87;;;2.50;;
21168;SDS011;10742;51.816;8.662;2023-09-19T05:42:22;13.33;;;2.67;;
21168;SDS011;10742;51.816;8.662;2023-09-19T05:45:43;9.70;;;2.30;;
21168;SDS011;10742;51.816;8.662;2023-09-19T05:49:06;14.03;;;2.50;;
21168;SDS011;10742;51.816;8.662;2023-09-19T05:52:27;13.17;;;2.70;;
21168;SDS011;10742;51.816;8.662;2023-09-19T05:55:29;13.37;;;2.90;;
21168;SDS011;10742;51.816;8.662;2023-09-19T05:58:32;11.23;;;2.43;;
21168;SDS011;10742;51.816;8.662;2023-09-19T06:01:35;8.90;;;2.30;;
21168;SDS011;10742;51.816;8.662;2023-09-19T06:04:38;10.50;;;2.23;;
21168;SDS011;10742;51.816;8.662;2023-09-19T06:07:42;14.40;;;2.47;;
21168;SDS011;10742;51.816;8.662;2023-09-19T06:10:45;11.67;;;2.40;;
21168;SDS011;10742;51.816;8.662;2023-09-19T06:13:48;12.90;;;2.63;;
21168;SDS011;10742;51.816;8.662;2023-09-19T06:16:52;14.47;;;2.57;;
21168;SDS011;10742;51.816;8.662;2023-09-19T06:19:56;11.00;;;2.57;;
21168;SDS011;10742;51.816;8.662;2023-09-19T06:22:58;13.23;;;2.97;;
21168;SDS011;10742;51.816;8.662;2023-09-19T06:26:01;13.90;;;2.70;;
21168;SDS011;10742;51.816;8.662;2023-09-19T06:29:03;12.53;;;2.30;;
21168;SDS011;10742;51.816;8.662;2023-09-19T06:32:09;8.87;;;2.23;;
21168;SDS011;10742;51.816;8.662;2023-09-19T06:35:12;9.70;;;2.03;;
21168;SDS011;10742;51.816;8.662;2023-09-19T06:38:15;11.00;;;2.07;;
21168;SDS011;10742;51.816;8.662;2023-09-19T06:41:21;12.37;;;2.20;;
21168;SDS011;10742;51.816;8.662;2023-09-19T06:44:26;14.05;;;2.40;;
21168;SDS011;10742;51.816;8.662;2023-09-19T06:47:31;11.77;;;2.45;;
21168;SDS011;10742;51.816;8.662;2023-09-19T06:50:33;12.90;;;2.55;;
21168;SDS011;10742;51.816;8.662;2023-09-19T06:53:36;9.82;;;2.95;;
21168;SDS011;10742;51.816;8.662;2023-09-19T06:56:38;8.27;;;2.53;;
21168;SDS011;10742;51.816;8.662;2023-09-19T06:59:40;12.57;;;2.33;;
21168;SDS011;10742;51.816;8.662;2023-09-19T07:02:43;11.82;;;2.60;;
21168;SDS011;10742;51.816;8.662;2023-09-19T07:05:47;14.10;;;2.33;;
21168;SDS011;10742;51.816;8.662;2023-09-19T07:08:50;7.88;;;2.17;;
21168;SDS011;10742;51.816;8.662;2023-09-19T07:11:52;8.50;;;2.25;;
21168;SDS011;10742;51.816;8.662;2023-09-19T07:14:55;9.60;;;2.00;;
21168;SDS011;10742;51.816;8.662;2023-09-19T07:17:58;8.18;;;2.45;;
21168;SDS011;10742;51.816;8.662;2023-09-19T07:21:02;14.07;;;2.42;;
21168;SDS011;10742;51.816;8.662;2023-09-19T07:24:06;10.25;;;1.88;;
21168;SDS011;10742;51.816;8.662;2023-09-19T07:27:09;12.98;;;2.40;;
21168;SDS011;10742;51.816;8.662;2023-09-19T07:30:12;10.95;;;2.25;;
21168;SDS011;10742;51.816;8.662;2023-09-19T07:33:14;7.95;;;2.25;;
21168;SDS011;10742;51.816;8.662;2023-09-19T07:36:17;8.32;;;2.40;;
21168;SDS011;10742;51.816;8.662;2023-09-19T07:39:19;10.77;;;2.80;;
21168;SDS011;10742;51.816;8.662;2023-09-19T07:42:23;14.20;;;2.47;;
21168;SDS011;10742;51.816;8.662;2023-09-19T07:45:25;9.63;;;2.20;;
21168;SDS011;10742;51.816;8.662;2023-09-19T07:48:28;13.57;;;2.38;;
21168;SDS011;10742;51.816;8.662;2023-09-19T07:51:30;11.10;;;2.42;;
21168;SDS011;10742;51.816;8.662;2023-09-19T07:54:35;10.50;;;2.50;;
21168;SDS011;10742;51.816;8.662;2023-09-19T07:57:37;8.70;;;2.22;;
21168;SDS011;10742;51.816;8.662;2023-09-19T08:00:40;11.95;;;2.40;;
21168;SDS011;10742;51.816;8.662;2023-09-19T08:03:42;14.52;;;2.90;;
21168;SDS011;10742;51.816;8.662;2023-09-19T08:06:45;11.60;;;2.58;;
21168;SDS011;10742;51.816;8.662;2023-09-19T08:09:48;12.55;;;2.42;;
21168;SDS011;10742;51.816;8.662;2023-09-19T08:12:50;12.52;;;2.28;;
21168;SDS011;10742;51.816;8.662;2023-09-19T08:15:58;13.35;;;2.83;;
21168;SDS011;10742;51.816;8.662;2023-09-19T08:19:00;18.55;;;3.00;;
21168;SDS011;10742;51.816;8.662;2023-09-19T08:22:02;14.25;;;2.15;;
21168;SDS011;10742;51.816;8.662;2023-09-19T08:25:05;10.25;;;2.30;;
21168;SDS011;10742;51.816;8.662;2023-09-19T08:28:12;7.35;;;2.20;;
21168;SDS011;10742;51.816;8.662;2023-09-19T08:31:28;8.82;;;2.13;;
21168;SDS011;10742;51.816;8.662;2023-09-19T08:34:31;10.35;;;2.60;;
21168;SDS011;10742;51.816;8.662;2023-09-19T08:37:35;13.10;;;2.50;;
21168;SDS011;10742;51.816;8.662;2023-09-19T08:40:38;7.30;;;2.28;;
21168;SDS011;10742;51.816;8.662;2023-09-19T08:43:44;7.90;;;2.45;;
21168;SDS011;10742;51.816;8.662;2023-09-19T08:46:48;10.18;;;2.40;;
21168;SDS011;10742;51.816;8.662;2023-09-19T08:53:16;13.13;;;2.60;;
21168;SDS011;10742;51.816;8.662;2023-09-19T08:56:29;10.60;;;2.40;;
21168;SDS011;10742;51.816;8.662;2023-09-19T08:59:39;10.57;;;2.80;;
21168;SDS011;10742;51.816;8.662;2023-09-19T09:02:45;12.23;;;2.30;;
21168;SDS011;10742;51.816;8.662;2023-09-19T09:05:49;13.18;;;2.60;;
21168;SDS011;10742;51.816;8.662;2023-09-19T09:08:52;14.48;;;2.75;;
21168;SDS011;10742;51.816;8.662;2023-09-19T09:11:55;13.98;;;2.75;;
21168;SDS011;10742;51.816;8.662;2023-09-19T09:14:59;14.00;;;2.40;;
21168;SDS011;10742;51.816;8.662;2023-09-19T09:18:02;11.20;;;2.45;;
21168;SDS011;10742;51.816;8.662;2023-09-19T09:21:06;9.82;;;2.45;;
21168;SDS011;10742;51.816;8.662;2023-09-19T09:24:28;9.23;;;2.67;;
21168;SDS011;10742;51.816;8.662;2023-09-19T09:27:31;16.63;;;3.00;;
21168;SDS011;10742;51.816;8.662;2023-09-19T09:30:34;12.30;;;2.83;;
21168;SDS011;10742;51.816;8.662;2023-09-19T09:33:39;8.60;;;2.63;;
21168;SDS011;10742;51.816;8.662;2023-09-19T09:36:44;14.20;;;3.25;;
21168;SDS011;10742;51.816;8.662;2023-09-19T09:39:52;14.30;;;2.92;;
21168;SDS011;10742;51.816;8.662;2023-09-19T09:42:58;10.98;;;2.53;;
21168;SDS011;10742;51.816;8.662;2023-09-19T09:46:18;11.98;;;2.88;;
21168;SDS011;10742;51.816;8.662;2023-09-19T09:49:25;11.48;;;2.70;;
21168;SDS011;10742;51.816;8.662;2023-09-19T09:52:46;12.82;;;2.97;;
21168;SDS011;10742;51.816;8.662;2023-09-19T09:59:12;14.00;;;2.85;;
21168;SDS011;10742;51.816;8.662;2023-09-19T10:02:20;9.63;;;2.40;;
21168;SDS011;10742;51.816;8.662;2023-09-19T10:05:30;12.85;;;3.53;;
21168;SDS011;10742;51.816;8.662;2023-09-19T10:08:56;16.92;;;2.80;;
21168;SDS011;10742;51.816;8.662;2023-09-19T10:12:13;12.60;;;3.00;;
21168;SDS011;10742;51.816;8.662;2023-09-19T10:15:18;12.25;;;2.55;;
21168;SDS011;10742;51.816;8.662;2023-09-19T10:18:27;10.85;;;2.40;;
21168;SDS011;10742;51.816;8.662;2023-09-19T10:21:31;8.70;;;2.65;;
21168;SDS011;10742;51.816;8.662;2023-09-19T10:24:34;13.02;;;2.60;;
21168;SDS011;10742;51.816;8.662;2023-09-19T10:27:41;15.88;;;2.95;;
21168;SDS011;10742;51.816;8.662;2023-09-19T10:30:49;10.55;;;2.30;;
21168;SDS011;10742;51.816;8.662;2023-09-19T10:33:55;11.93;;;2.50;;
21168;SDS011;10742;51.816;8.662;2023-09-19T10:36:59;15.27;;;2.53;;
21168;SDS011;10742;51.816;8.662;2023-09-19T10:40:07;11.30;;;2.92;;
21168;SDS011;10742;51.816;8.662;2023-09-19T10:43:15;12.52;;;2.80;;
21168;SDS011;10742;51.816;8.662;2023-09-19T10:46:20;11.15;;;2.50;;
21168;SDS011;10742;51.816;8.662;2023-09-19T10:49:22;10.60;;;2.75;;
21168;SDS011;10742;51.816;8.662;2023-09-19T10:52:26;13.18;;;2.60;;
21168;SDS011;10742;51.816;8.662;2023-09-19T10:55:31;10.32;;;2.25;;
21168;SDS011;10742;51.816;8.662;2023-09-19T10:58:34;10.27;;;2.72;;
21168;SDS011;10742;51.816;8.662;2023-09-19T11:04:53;8.98;;;2.28;;
21168;SDS011;10742;51.816;8.662;2023-09-19T11:07:59;8.00;;;2.40;;
21168;SDS011;10742;51.816;8.662;2023-09-19T11:11:45;10.15;;;2.72;;
21168;SDS011;10742;51.816;8.662;2023-09-19T11:15:11;11.93;;;2.38;;
21168;SDS011;10742;51.816;8.662;2023-09-19T11:18:52;11.95;;;2.70;;
21168;SDS011;10742;51.816;8.662;2023-09-19T11:21:55;10.88;;;3.05;;
21168;SDS011;10742;51.816;8.662;2023-09-19T11:25:10;9.27;;;2.38;;
21168;SDS011;10742;51.816;8.662;2023-09-19T11:28:33;12.75;;;2.50;;
21168;SDS011;10742;51.816;8.662;2023-09-19T11:31:41;7.93;;;2.42;;
21168;SDS011;10742;51.816;8.662;2023-09-19T11:34:47;8.63;;;2.22;;
21168;SDS011;10742;51.816;8.662;2023-09-19T11:41:36;12.05;;;2.50;;
21168;SDS011;10742;51.816;8.662;2023-09-19T11:47:32;10.35;;;2.33;;
21168;SDS011;10742;51.816;8.662;2023-09-19T11:50:36;10.18;;;2.35;;
21168;SDS011;10742;51.816;8.662;2023-09-19T11:53:39;9.77;;;2.25;;
21168;SDS011;10742;51.816;8.662;2023-09-19T11:56:43;12.90;;;2.60;;
21168;SDS011;10742;51.816;8.662;2023-09-19T11:59:47;8.68;;;2.40;;
21168;SDS011;10742;51.816;8.662;2023-09-19T12:02:49;11.90;;;2.55;;
21168;SDS011;10742;51.816;8.662;2023-09-19T12:05:58;8.75;;;2.28;;
21168;SDS011;10742;51.816;8.662;2023-09-19T12:09:01;8.98;;;2.90;;
21168;SDS011;10742;51.816;8.662;2023-09-19T12:12:09;8.13;;;2.50;;
21168;SDS011;10742;51.816;8.662;2023-09-19T12:15:41;9.23;;;2.42;;
21168;SDS011;10742;51.816;8.662;2023-09-19T12:18:47;8.35;;;2.55;;
21168;SDS011;10742;51.816;8.662;2023-09-19T12:22:01;7.82;;;2.17;;
21168;SDS011;10742;51.816;8.662;2023-09-19T12:25:08;10.20;;;2.83;;
21168;SDS011;10742;51.816;8.662;2023-09-19T12:28:13;10.50;;;2.63;;
21168;SDS011;10742;51.816;8.662;2023-09-19T12:31:18;6.55;;;2.30;;
21168;SDS011;10742;51.816;8.662;2023-09-19T12:34:22;9.15;;;2.25;;
21168;SDS011;10742;51.816;8.662;2023-09-19T12:37:25;5.95;;;2.50;;
21168;SDS011;10742;51.816;8.662;2023-09-19T12:40:31;7.93;;;2.45;;
21168;SDS011;10742;51.816;8.662;2023-09-19T12:43:35;12.27;;;2.85;;
21168;SDS011;10742;51.816;8.662;2023-09-19T12:46:39;7.72;;;2.10;;
21168;SDS011;10742;51.816;8.662;2023-09-19T12:53:26;7.57;;;2.30;;
21168;SDS011;10742;51.816;8.662;2023-09-19T12:56:39;7.68;;;2.40;;
21168;SDS011;10742;51.816;8.662;2023-09-19T12:59:46;5.80;;;2.25;;
21168;SDS011;10742;51.816;8.662;2023-09-19T13:06:34;7.32;;;2.30;;
21168;SDS011;10742;51.816;8.662;2023-09-19T13:10:01;11.32;;;2.78;;
21168;SDS011;10742;51.816;8.662;2023-09-19T13:13:23;7.10;;;2.28;;
21168;SDS011;10742;51.816;8.662;2023-09-19T13:16:29;7.90;;;2.08;;
21168;SDS011;10742;51.816;8.662;2023-09-19T13:19:40;10.38;;;2.40;;
21168;SDS011;10742;51.816;8.662;2023-09-19T13:23:28;9.35;;;2.53;;
21168;SDS011;10742;51.816;8.662;2023-09-19T13:26:30;9.25;;;2.60;;
21168;SDS011;10742;51.816;8.662;2023-09-19T13:29:33;9.55;;;2.30;;
21168;SDS011;10742;51.816;8.662;2023-09-19T13:32:37;6.90;;;2.28;;
21168;SDS011;10742;51.816;8.662;2023-09-19T13:35:41;6.35;;;2.08;;
21168;SDS011;10742;51.816;8.662;2023-09-19T13:38:43;5.18;;;1.90;;
21168;SDS011;10742;51.816;8.662;2023-09-19T13:41:49;10.48;;;2.42;;
21168;SDS011;10742;51.816;8.662;2023-09-19T13:44:54;11.35;;;2.30;;
21168;SDS011;10742;51.816;8.662;2023-09-19T13:47:59;8.50;;;1.90;;
21168;SDS011;10742;51.816;8.662;2023-09-19T13:51:08;7.75;;;2.20;;
21168;SDS011;10742;51.816;8.662;2023-09-19T13:54:20;6.57;;;2.03;;
21168;SDS011;10742;51.816;8.662;2023-09-19T13:57:23;12.20;;;1.92;;
21168;SDS011;10742;51.816;8.662;2023-09-19T14:00:26;8.45;;;1.80;;
21168;SDS011;10742;51.816;8.662;2023-09-19T14:03:29;10.02;;;2.22;;
21168;SDS011;10742;51.816;8.662;2023-09-19T14:06:31;8.25;;;2.05;;
21168;SDS011;10742;51.816;8.662;2023-09-19T14:09:35;7.68;;;1.90;;
21168;SDS011;10742;51.816;8.662;2023-09-19T14:12:37;6.35;;;1.80;;
21168;SDS011;10742;51.816;8.662;2023-09-19T14:15:42;8.55;;;2.10;;
21168;SDS011;10742;51.816;8.662;2023-09-19T14:18:45;4.68;;;1.80;;
21168;SDS011;10742;51.816;8.662;2023-09-19T14:21:48;5.63;;;2.03;;
21168;SDS011;10742;51.816;8.662;2023-09-19T14:24:52;6.50;;;2.05;;
21168;SDS011;10742;51.816;8.662;2023-09-19T14:27:55;6.15;;;2.00;;
21168;SDS011;10742;51.816;8.662;2023-09-19T14:30:57;5.53;;;1.98;;
21168;SDS011;10742;51.816;8.662;2023-09-19T14:34:01;3.72;;;1.75;;
21168;SDS011;10742;51.816;8.662;2023-09-19T14:37:04;5.95;;;1.80;;
21168;SDS011;10742;51.816;8.662;2023-09-19T14:40:10;7.97;;;2.30;;
21168;SDS011;10742;51.816;8.662;2023-09-19T14:43:13;8.65;;;1.90;;
21168;SDS011;10742;51.816;8.662;2023-09-19T14:46:15;7.82;;;2.00;;
21168;SDS011;10742;51.816;8.662;2023-09-19T14:49:18;5.88;;;2.00;;
21168;SDS011;10742;51.816;8.662;2023-09-19T14:52:20;6.78;;;1.95;;
21168;SDS011;10742;51.816;8.662;2023-09-19T14:55:23;5.00;;;1.90;;
21168;SDS011;10742;51.816;8.662;2023-09-19T14:58:25;7.40;;;2.00;;
21168;SDS011;10742;51.816;8.662;2023-09-19T15:01:31;6.93;;;2.10;;
21168;SDS011;10742;51.816;8.662;2023-09-19T15:04:34;7.07;;;1.80;;
21168;SDS011;10742;51.816;8.662;2023-09-19T15:07:36;6.45;;;1.90;;
21168;SDS011;10742;51.816;8.662;2023-09-19T15:10:40;7.82;;;2.20;;
21168;SDS011;10742;51.816;8.662;2023-09-19T15:13:44;7.75;;;2.10;;
21168;SDS011;10742;51.816;8.662;2023-09-19T15:16:47;6.38;;;2.17;;
21168;SDS011;10742;51.816;8.662;2023-09-19T15:19:50;4.88;;;2.05;;
21168;SDS011;10742;51.816;8.662;2023-09-19T15:22:53;7.00;;;2.25;;
21168;SDS011;10742;51.816;8.662;2023-09-19T15:25:55;8.38;;;1.67;;
21168;SDS011;10742;51.816;8.662;2023-09-19T15:28:58;8.18;;;2.13;;
21168;SDS011;10742;51.816;8.662;2023-09-19T15:32:02;9.60;;;2.50;;
21168;SDS011;10742;51.816;8.662;2023-09-19T15:35:04;4.88;;;1.88;;
21168;SDS011;10742;51.816;8.662;2023-09-19T15:38:07;10.00;;;2.33;;
21168;SDS011;10742;51.816;8.662;2023-09-19T15:41:12;6.47;;;1.98;;
21168;SDS011;10742;51.816;8.662;2023-09-19T15:44:16;8.77;;;2.22;;
21168;SDS011;10742;51.816;8.662;2023-09-19T15:47:19;6.72;;;1.83;;
21168;SDS011;10742;51.816;8.662;2023-09-19T15:50:22;7.13;;;1.90;;
21168;SDS011;10742;51.816;8.662;2023-09-19T15:53:24;7.38;;;2.28;;
21168;SDS011;10742;51.816;8.662;2023-09-19T15:56:27;5.95;;;2.40;;
21168;SDS011;10742;51.816;8.662;2023-09-19T15:59:29;4.47;;;1.83;;
21168;SDS011;10742;51.816;8.662;2023-09-19T16:02:32;3.78;;;2.08;;
21168;SDS011;10742;51.816;8.662;2023-09-19T16:05:37;6.38;;;2.10;;
21168;SDS011;10742;51.816;8.662;2023-09-19T16:08:41;5.97;;;1.95;;
21168;SDS011;10742;51.816;8.662;2023-09-19T16:11:44;5.65;;;2.03;;
21168;SDS011;10742;51.816;8.662;2023-09-19T16:14:47;11.18;;;2.22;;
21168;SDS011;10742;51.816;8.662;2023-09-19T16:17:51;7.35;;;2.05;;
21168;SDS011;10742;51.816;8.662;2023-09-19T16:20:54;7.05;;;1.90;;
21168;SDS011;10742;51.816;8.662;2023-09-19T16:24:03;5.85;;;1.88;;
21168;SDS011;10742;51.816;8.662;2023-09-19T16:27:07;5.88;;;1.92;;
21168;SDS011;10742;51.816;8.662;2023-09-19T16:30:09;8.27;;;2.03;;
21168;SDS011;10742;51.816;8.662;2023-09-19T16:33:12;4.25;;;1.98;;
21168;SDS011;10742;51.816;8.662;2023-09-19T16:36:15;9.65;;;2.10;;
21168;SDS011;10742;51.816;8.662;2023-09-19T16:39:19;9.57;;;2.30;;
21168;SDS011;10742;51.816;8.662;2023-09-19T16:42:22;8.00;;;2.08;;
21168;SDS011;10742;51.816;8.662;2023-09-19T16:45:24;7.15;;;2.22;;
21168;SDS011;10742;51.816;8.662;2023-09-19T16:48:27;4.18;;;1.88;;
21168;SDS011;10742;51.816;8.662;2023-09-19T16:51:31;5.97;;;1.90;;
21168;SDS011;10742;51.816;8.662;2023-09-19T16:54:34;4.78;;;1.70;;
21168;SDS011;10742;51.816;8.662;2023-09-19T16:57:37;7.50;;;2.10;;
21168;SDS011;10742;51.816;8.662;2023-09-19T17:00:39;4.07;;;1.70;;
21168;SDS011;10742;51.816;8.662;2023-09-19T17:03:41;5.15;;;1.58;;
21168;SDS011;10742;51.816;8.662;2023-09-19T17:06:44;6.57;;;2.13;;
21168;SDS011;10742;51.816;8.662;2023-09-19T17:09:48;7.22;;;2.08;;
21168;SDS011;10742;51.816;8.662;2023-09-19T17:12:55;6.47;;;1.77;;
21168;SDS011;10742;51.816;8.662;2023-09-19T17:16:04;4.18;;;1.65;;
21168;SDS011;10742;51.816;8.662;2023-09-19T17:19:09;8.05;;;1.50;;
21168;SDS011;10742;51.816;8.662;2023-09-19T17:22:14;4.95;;;1.48;;
21168;SDS011;10742;51.816;8.662;2023-09-19T17:25:16;3.65;;;1.58;;
21168;SDS011;10742;51.816;8.662;2023-09-19T17:28:18;6.80;;;1.70;;
21168;SDS011;10742;51.816;8.662;2023-09-19T17:31:22;7.60;;;1.52;;
21168;SDS011;10742;51.816;8.662;2023-09-19T17:34:26;4.78;;;1.30;;
21168;SDS011;10742;51.816;8.662;2023-09-19T17:37:28;4.22;;;1.70;;
21168;SDS011;10742;51.816;8.662;2023-09-19T17:40:37;3.63;;;1.52;;
21168;SDS011;10742;51.816;8.662;2023-09-19T17:43:44;9.07;;;1.50;;
21168;SDS011;10742;51.816;8.662;2023-09-19T17:46:48;7.55;;;1.77;;
21168;SDS011;10742;51.816;8.662;2023-09-19T17:49:50;6.65;;;1.40;;
21168;SDS011;10742;51.816;8.662;2023-09-19T17:52:53;6.32;;;1.70;;
21168;SDS011;10742;51.816;8.662;2023-09-19T17:55:55;2.20;;;1.42;;
21168;SDS011;10742;51.816;8.662;2023-09-19T17:58:58;9.73;;;1.73;;
21168;SDS011;10742;51.816;8.662;2023-09-19T18:02:01;4.82;;;1.50;;
21168;SDS011;10742;51.816;8.662;2023-09-19T18:05:04;3.35;;;1.17;;
21168;SDS011;10742;51.816;8.662;2023-09-19T18:08:06;6.75;;;1.55;;
21168;SDS011;10742;51.816;8.662;2023-09-19T18:11:12;7.13;;;1.40;;
21168;SDS011;10742;51.816;8.662;2023-09-19T18:14:17;3.60;;;1.40;;
21168;SDS011;10742;51.816;8.662;2023-09-19T18:17:22;3.92;;;1.30;;
21168;SDS011;10742;51.816;8.662;2023-09-19T18:20:25;3.60;;;1.50;;
21168;SDS011;10742;51.816;8.662;2023-09-19T18:23:27;8.40;;;1.40;;
21168;SDS011;10742;51.816;8.662;2023-09-19T18:26:30;5.38;;;1.40;;
21168;SDS011;10742;51.816;8.662;2023-09-19T18:29:32;4.65;;;1.48;;
21168;SDS011;10742;51.816;8.662;2023-09-19T18:32:35;4.13;;;1.42;;
21168;SDS011;10742;51.816;8.662;2023-09-19T18:35:39;8.55;;;2.28;;
21168;SDS011;10742;51.816;8.662;2023-09-19T18:38:42;3.08;;;1.25;;
21168;SDS011;10742;51.816;8.662;2023-09-19T18:41:46;8.07;;;1.77;;
21168;SDS011;10742;51.816;8.662;2023-09-19T18:44:48;7.93;;;1.67;;
21168;SDS011;10742;51.816;8.662;2023-09-19T18:47:51;6.93;;;1.70;;
21168;SDS011;10742;51.816;8.662;2023-09-19T18:50:54;6.15;;;1.70;;
21168;SDS011;10742;51.816;8.662;2023-09-19T18:53:56;5.28;;;1.63;;
21168;SDS011;10742;51.816;8.662;2023-09-19T18:57:06;6.05;;;1.30;;
21168;SDS011;10742;51.816;8.662;2023-09-19T19:00:09;7.03;;;1.73;;
21168;SDS011;10742;51.816;8.662;2023-09-19T19:03:13;5.10;;;1.52;;
21168;SDS011;10742;51.816;8.662;2023-09-19T19:06:17;4.10;;;1.55;;
21168;SDS011;10742;51.816;8.662;2023-09-19T19:09:19;4.32;;;1.35;;
21168;SDS011;10742;51.816;8.662;2023-09-19T19:12:22;4.68;;;1.67;;
21168;SDS011;10742;51.816;8.662;2023-09-19T19:15:24;5.07;;;1.27;;
21168;SDS011;10742;51.816;8.662;2023-09-19T19:18:28;5.68;;;1.52;;
21168;SDS011;10742;51.816;8.662;2023-09-19T19:21:32;3.92;;;1.38;;
21168;SDS011;10742;51.816;8.662;2023-09-19T19:24:35;6.72;;;1.52;;
21168;SDS011;10742;51.816;8.662;2023-09-19T19:27:38;4.53;;;1.50;;
21168;SDS011;10742;51.816;8.662;2023-09-19T19:30:43;6.93;;;1.92;;
21168;SDS011;10742;51.816;8.662;2023-09-19T19:33:47;5.65;;;1.50;;
21168;SDS011;10742;51.816;8.662;2023-09-19T19:36:51;3.80;;;1.60;;
21168;SDS011;10742;51.816;8.662;2023-09-19T19:39:54;6.22;;;1.80;;
21168;SDS011;10742;51.816;8.662;2023-09-19T19:42:56;3.80;;;1.33;;